createdAt,value
2018-07-04T00:01:13.345Z,51.73
2018-07-04T00:03:52.902Z,51.48
2018-07-04T00:06:38.142Z,50.97
2018-07-04T00:09:23.574Z,52.09
2018-07-04T00:12:08.961Z,51.51
2018-07-04T00:14:54.550Z,51.49
2018-07-04T00:17:40.533Z,51.67
2018-07-04T00:20:31.925Z,50.97
2018-07-04T00:23:17.322Z,51.16
2018-07-04T00:26:02.705Z,52.09
2018-07-04T00:28:48.192Z,52.14
2018-07-04T00:31:34.090Z,52.17
2018-07-04T00:34:19.596Z,52.41
2018-07-04T00:37:05.087Z,51.63
2018-07-04T00:39:50.420Z,52.23
2018-07-04T00:42:35.772Z,52.31
2018-07-04T00:45:21.246Z,52.83
2018-07-04T00:48:06.552Z,52.01
2018-07-04T00:50:52.016Z,52.97
2018-07-04T00:53:37.718Z,52.46
2018-07-04T00:56:23.339Z,53.03
2018-07-04T00:59:08.906Z,53.37
2018-07-04T01:01:54.535Z,53.83
2018-07-04T01:04:40.363Z,54.31
2018-07-04T01:07:25.788Z,54.44
2018-07-04T01:10:10.997Z,53.98
2018-07-04T01:13:00.625Z,54.20
2018-07-04T01:15:45.967Z,54.05
2018-07-04T01:18:31.298Z,54.52
2018-07-04T01:21:16.881Z,53.93
2018-07-04T01:24:02.310Z,54.88
2018-07-04T01:26:47.930Z,54.95
2018-07-04T01:29:33.506Z,55.28
2018-07-04T01:32:19.136Z,54.68
2018-07-04T01:35:04.666Z,55.22
2018-07-04T01:37:49.985Z,54.67
2018-07-04T01:40:35.328Z,55.14
2018-07-04T01:43:20.673Z,55.27
2018-07-04T01:46:06.062Z,55.02
2018-07-04T01:48:51.549Z,55.07
2018-07-04T01:51:36.937Z,56.02
2018-07-04T01:54:22.386Z,56.31
2018-07-04T01:57:07.731Z,55.78
2018-07-04T01:59:53.203Z,55.06
2018-07-04T02:02:38.609Z,55.51
2018-07-04T02:05:24.002Z,55.40
2018-07-04T02:08:09.633Z,55.54
2018-07-04T02:10:49.231Z,55.93
2018-07-04T02:13:34.756Z,55.28
2018-07-04T02:16:20.196Z,55.80
2018-07-04T02:19:05.665Z,55.70
2018-07-04T02:21:51.048Z,55.74
2018-07-04T02:24:36.550Z,55.83
2018-07-04T02:27:22.216Z,55.91
2018-07-04T02:30:07.718Z,56.40
2018-07-04T02:32:53.069Z,56.54
2018-07-04T02:35:38.478Z,56.33
2018-07-04T02:38:23.981Z,56.65
2018-07-04T02:41:09.533Z,57.37
2018-07-04T02:43:54.988Z,57.34
2018-07-04T02:46:40.465Z,57.57
2018-07-04T02:49:25.973Z,57.55
2018-07-04T02:52:11.352Z,57.08
2018-07-04T02:54:56.989Z,57.50
2018-07-04T02:57:42.413Z,57.40
2018-07-04T03:00:27.774Z,57.85
2018-07-04T03:03:13.209Z,57.80
2018-07-04T03:05:58.590Z,57.16
2018-07-04T03:08:44.202Z,58.14
2018-07-04T03:11:29.820Z,57.46
2018-07-04T03:14:15.337Z,58.28
2018-07-04T03:17:00.698Z,58.69
2018-07-04T03:19:46.139Z,58.52
2018-07-04T03:22:31.885Z,58.07
2018-07-04T03:25:17.305Z,58.49
2018-07-04T03:28:02.594Z,58.60
2018-07-04T03:30:48.060Z,58.76
2018-07-04T03:33:33.582Z,59.34
2018-07-04T03:36:19.005Z,59.34
2018-07-04T03:39:05.740Z,59.38
2018-07-04T03:41:51.341Z,58.97
2018-07-04T03:44:36.803Z,59.03
2018-07-04T03:47:22.360Z,58.67
2018-07-04T03:50:07.870Z,59.32
2018-07-04T03:52:53.364Z,58.80
2018-07-04T03:55:39.024Z,59.33
2018-07-04T03:58:24.541Z,59.30
2018-07-04T04:01:04.083Z,59.88
2018-07-04T04:03:43.615Z,59.52
2018-07-04T04:06:28.943Z,59.76
2018-07-04T04:09:14.376Z,59.23
2018-07-04T04:11:53.923Z,59.44
2018-07-04T04:14:39.688Z,59.70
2018-07-04T04:17:25.067Z,59.32
2018-07-04T04:20:10.629Z,59.28
2018-07-04T04:22:56.152Z,59.19
2018-07-04T04:25:35.681Z,59.17
2018-07-04T04:28:21.067Z,58.95
2018-07-04T04:31:06.493Z,58.80
2018-07-04T04:33:52.113Z,59.72
2018-07-04T04:36:37.690Z,59.26
2018-07-04T04:39:23.656Z,59.37
2018-07-04T04:42:09.092Z,59.00
2018-07-04T04:44:48.716Z,58.10
2018-07-04T04:47:34.249Z,57.64
2018-07-04T04:50:19.769Z,57.68
2018-07-04T04:53:05.252Z,57.70
2018-07-04T04:55:50.709Z,57.02
2018-07-04T04:58:36.264Z,57.16
2018-07-04T05:01:21.959Z,57.71
2018-07-04T05:04:07.593Z,57.89
2018-07-04T05:06:53.184Z,57.48
2018-07-04T05:09:38.658Z,56.84
2018-07-04T05:12:24.029Z,57.55
2018-07-04T05:15:09.603Z,56.68
2018-07-04T05:17:55.085Z,56.17
2018-07-04T05:20:40.623Z,56.79
2018-07-04T05:23:25.873Z,57.01
2018-07-04T05:26:05.816Z,56.70
2018-07-04T05:28:51.063Z,55.87
2018-07-04T05:31:36.821Z,55.58
2018-07-04T05:34:22.196Z,56.09
2018-07-04T05:37:07.648Z,55.32
2018-07-04T05:39:47.088Z,55.04
2018-07-04T05:42:32.532Z,55.42
2018-07-04T05:45:17.962Z,54.56
2018-07-04T05:48:03.080Z,54.25
2018-07-04T05:50:48.457Z,54.46
2018-07-04T05:53:33.822Z,54.51
2018-07-04T05:56:19.352Z,53.61
2018-07-04T05:59:04.776Z,53.78
2018-07-04T06:01:50.191Z,54.25
2018-07-04T06:04:35.623Z,53.41
2018-07-04T06:07:21.350Z,52.66
2018-07-04T06:10:06.934Z,52.31
2018-07-04T06:12:52.280Z,52.96
2018-07-04T06:15:37.991Z,52.64
2018-07-04T06:18:23.753Z,51.56
2018-07-04T06:21:12.719Z,50.71
2018-07-04T06:23:58.590Z,49.07
2018-07-04T06:26:38.481Z,49.55
2018-07-04T06:29:18.131Z,48.78
2018-07-04T06:32:03.591Z,48.33
2018-07-04T06:34:49.060Z,47.29
2018-07-04T06:37:36.210Z,47.19
2018-07-04T06:40:02.986Z,47.98
2018-07-04T06:42:29.620Z,43.92
2018-07-04T06:44:57.892Z,45.15
2018-07-04T06:47:25.126Z,43.81
2018-07-04T06:49:51.905Z,45.02
2018-07-04T06:52:20.771Z,44.76
2018-07-04T06:54:48.314Z,44.75
2018-07-04T06:57:15.160Z,43.69
2018-07-04T06:59:41.838Z,44.16
2018-07-04T07:02:11.616Z,43.24
2018-07-04T07:04:57.997Z,43.94
2018-07-04T07:07:43.535Z,43.51
2018-07-04T07:10:28.956Z,42.86
2018-07-04T07:13:14.265Z,42.18
2018-07-04T07:15:53.974Z,41.35
2018-07-04T07:18:39.473Z,41.26
2018-07-04T07:21:24.944Z,40.71
2018-07-04T07:24:10.316Z,40.00
2018-07-04T07:26:55.612Z,38.20
2018-07-04T07:29:41.203Z,38.64
2018-07-04T07:32:20.692Z,38.40
2018-07-04T07:35:06.222Z,37.92
2018-07-04T07:37:45.655Z,37.83
2018-07-04T07:40:31.137Z,38.16
2018-07-04T07:43:16.725Z,37.48
2018-07-04T07:46:02.996Z,37.32
2018-07-04T07:48:48.624Z,37.03
2018-07-04T07:51:34.084Z,37.08
2018-07-04T07:54:19.616Z,37.22
2018-07-04T07:56:59.186Z,37.26
2018-07-04T07:59:44.540Z,37.40
2018-07-04T08:02:29.852Z,37.37
2018-07-04T08:05:15.846Z,36.37
2018-07-04T08:08:01.275Z,37.07
2018-07-04T08:10:47.007Z,36.53
2018-07-04T08:13:33.259Z,36.79
2018-07-04T08:16:19.568Z,36.76
2018-07-04T08:19:07.022Z,36.25
2018-07-04T08:21:57.045Z,37.26
2018-07-04T08:24:43.713Z,36.25
2018-07-04T08:27:29.162Z,36.59
2018-07-04T08:30:14.656Z,36.77
2018-07-04T08:33:00.150Z,36.69
2018-07-04T08:35:45.865Z,35.96
2018-07-04T08:38:31.480Z,36.55
2018-07-04T08:41:16.909Z,36.08
2018-07-04T08:44:02.263Z,36.37
2018-07-04T08:46:47.650Z,35.08
2018-07-04T08:49:33.111Z,35.38
2018-07-04T08:52:18.441Z,34.96
2018-07-04T08:55:03.780Z,35.14
2018-07-04T08:57:49.224Z,34.77
2018-07-04T09:00:28.705Z,34.38
2018-07-04T09:03:14.112Z,34.68
2018-07-04T09:05:59.458Z,35.27
2018-07-04T09:08:44.856Z,35.29
2018-07-04T09:11:30.437Z,35.34
2018-07-04T09:14:15.968Z,35.43
2018-07-04T09:17:01.209Z,35.49
2018-07-04T09:19:40.741Z,35.01
2018-07-04T09:22:26.315Z,34.73
2018-07-04T09:25:11.692Z,33.79
2018-07-04T09:27:57.376Z,34.63
2018-07-04T09:30:42.881Z,34.30
2018-07-04T09:33:28.328Z,34.52
2018-07-04T09:36:13.762Z,34.63
2018-07-04T09:38:59.496Z,35.90
2018-07-04T09:41:46.997Z,36.42
2018-07-04T09:44:32.602Z,36.04
2018-07-04T09:47:18.598Z,35.02
2018-07-04T09:50:04.067Z,35.75
2018-07-04T09:52:49.526Z,36.43
2018-07-04T09:55:35.063Z,36.23
2018-07-04T09:58:20.525Z,35.22
2018-07-04T10:01:11.534Z,34.59
2018-07-04T10:03:57.099Z,35.37
2018-07-04T10:06:43.342Z,33.71
2018-07-04T10:09:23.321Z,34.22
2018-07-04T10:12:08.908Z,34.21
2018-07-04T10:14:54.428Z,33.89
2018-07-04T10:17:39.962Z,36.08
2018-07-04T10:20:25.553Z,35.45
2018-07-04T10:23:05.263Z,34.88
2018-07-04T10:25:50.823Z,35.39
2018-07-04T10:28:36.450Z,35.82
2018-07-04T10:31:21.994Z,36.28
2018-07-04T10:34:07.724Z,36.37
2018-07-04T10:36:47.255Z,36.46
2018-07-04T10:39:26.943Z,35.37
2018-07-04T10:42:12.399Z,36.35
2018-07-04T10:44:58.070Z,36.92
2018-07-04T10:47:37.750Z,35.91
2018-07-04T10:50:23.130Z,36.91
2018-07-04T10:53:08.730Z,37.06
2018-07-04T10:55:54.228Z,35.94
2018-07-04T10:58:39.981Z,35.46
2018-07-04T11:01:25.525Z,36.12
2018-07-04T11:04:05.244Z,35.21
2018-07-04T11:06:50.726Z,35.56
2018-07-04T11:09:36.190Z,35.89
2018-07-04T11:12:21.964Z,35.27
2018-07-04T11:15:07.454Z,34.31
2018-07-04T11:17:53.171Z,33.70
2018-07-04T11:20:38.565Z,32.66
2018-07-04T11:23:18.074Z,32.21
2018-07-04T11:26:03.437Z,32.44
2018-07-04T11:28:48.927Z,33.86
2018-07-04T11:31:34.520Z,34.18
2018-07-04T11:34:20.010Z,33.52
2018-07-04T11:37:05.629Z,33.85
2018-07-04T11:39:51.197Z,35.53
2018-07-04T11:42:30.736Z,36.38
2018-07-04T11:45:10.372Z,36.64
2018-07-04T11:47:37.473Z,37.70
2018-07-04T11:50:05.087Z,37.28
2018-07-04T11:52:32.143Z,38.07
2018-07-04T11:54:58.856Z,37.83
2018-07-04T11:57:25.527Z,36.95
2018-07-04T11:59:52.213Z,36.53
2018-07-04T12:02:18.874Z,37.42
2018-07-04T12:05:04.340Z,37.04
2018-07-04T12:07:30.961Z,37.36
2018-07-04T12:09:57.631Z,37.33
2018-07-04T12:12:24.269Z,37.30
2018-07-04T12:14:51.079Z,36.27
2018-07-04T12:17:17.919Z,36.76
2018-07-04T12:19:44.717Z,36.41
2018-07-04T12:22:11.912Z,37.01
2018-07-04T12:24:38.736Z,37.27
2018-07-04T12:27:05.366Z,37.50
2018-07-04T12:29:32.060Z,37.02
2018-07-04T12:31:58.749Z,36.80
2018-07-04T12:34:25.441Z,37.27
2018-07-04T12:36:52.104Z,38.33
2018-07-04T12:39:18.731Z,37.96
2018-07-04T12:41:45.381Z,39.13
2018-07-04T12:44:12.043Z,39.51
2018-07-04T12:46:38.694Z,39.31
2018-07-04T12:49:05.487Z,40.12
2018-07-04T12:51:33.572Z,40.14
2018-07-04T12:54:05.959Z,40.59
2018-07-04T12:56:51.611Z,40.84
2018-07-04T12:59:37.073Z,40.38
2018-07-04T13:02:22.534Z,39.06
2018-07-04T13:05:08.111Z,39.55
2018-07-04T13:07:53.562Z,38.65
2018-07-04T13:10:39.039Z,36.92
2018-07-04T13:13:18.644Z,36.42
2018-07-04T13:16:04.693Z,36.27
2018-07-04T13:18:50.112Z,37.07
2018-07-04T13:21:35.416Z,37.66
2018-07-04T13:24:20.788Z,38.08
2018-07-04T13:27:06.252Z,38.56
2018-07-04T13:29:51.539Z,38.33
2018-07-04T13:32:37.022Z,38.53
2018-07-04T13:35:22.544Z,38.96
2018-07-04T13:38:08.055Z,39.06
2018-07-04T13:40:53.463Z,39.97
2018-07-04T13:43:38.942Z,39.48
2018-07-04T13:46:24.247Z,39.22
2018-07-04T13:49:04.040Z,38.97
2018-07-04T13:51:49.720Z,39.19
2018-07-04T13:54:35.099Z,39.78
2018-07-04T13:57:20.750Z,39.85
2018-07-04T14:00:06.168Z,39.92
2018-07-04T14:02:51.773Z,40.40
2018-07-04T14:05:37.117Z,40.85
2018-07-04T14:08:22.611Z,41.11
2018-07-04T14:11:08.325Z,41.17
2018-07-04T14:13:53.879Z,40.90
2018-07-04T14:16:39.299Z,40.94
2018-07-04T14:19:19.001Z,41.60
2018-07-04T14:22:04.396Z,42.60
2018-07-04T14:24:49.838Z,42.10
2018-07-04T14:27:35.269Z,42.14
2018-07-04T14:30:14.832Z,42.47
2018-07-04T14:33:00.384Z,42.48
2018-07-04T14:35:45.883Z,42.11
2018-07-04T14:38:25.461Z,42.93
2018-07-04T14:41:10.751Z,41.95
2018-07-04T14:43:56.207Z,42.88
2018-07-04T14:46:41.480Z,43.51
2018-07-04T14:49:26.820Z,43.40
2018-07-04T14:52:12.564Z,42.89
2018-07-04T14:54:58.408Z,43.67
2018-07-04T14:57:38.030Z,43.48
2018-07-04T15:00:23.480Z,43.87
2018-07-04T15:03:09.271Z,43.29
2018-07-04T15:05:54.530Z,44.10
2018-07-04T15:08:40.290Z,43.11
2018-07-04T15:11:25.689Z,43.72
2018-07-04T15:14:11.123Z,43.86
2018-07-04T15:16:56.564Z,43.00
2018-07-04T15:19:42.096Z,42.45
2018-07-04T15:22:27.576Z,43.47
2018-07-04T15:25:13.034Z,43.11
2018-07-04T15:27:58.732Z,44.12
2018-07-04T15:30:44.171Z,43.72
2018-07-04T15:33:29.532Z,43.85
2018-07-04T15:36:15.235Z,45.03
2018-07-04T15:39:00.588Z,45.30
2018-07-04T15:41:46.366Z,45.64
2018-07-04T15:44:31.791Z,45.55
2018-07-04T15:47:17.165Z,45.46
2018-07-04T15:49:57.395Z,45.94
2018-07-04T15:52:43.205Z,45.09
2018-07-04T15:55:28.677Z,44.85
2018-07-04T15:58:13.972Z,45.76
2018-07-04T16:00:59.483Z,45.68
2018-07-04T16:03:44.877Z,45.91
2018-07-04T16:06:30.301Z,44.99
2018-07-04T16:09:15.829Z,45.72
2018-07-04T16:12:01.084Z,45.02
2018-07-04T16:14:46.736Z,45.86
2018-07-04T16:17:32.208Z,45.48
2018-07-04T16:20:17.432Z,44.97
2018-07-04T16:23:02.879Z,45.73
2018-07-04T16:25:43.536Z,45.45
2018-07-04T16:28:29.146Z,45.88
2018-07-04T16:31:14.748Z,45.20
2018-07-04T16:34:00.084Z,45.57
2018-07-04T16:36:45.760Z,46.01
2018-07-04T16:39:31.345Z,45.20
2018-07-04T16:42:16.795Z,45.06
2018-07-04T16:44:56.880Z,46.40
2018-07-04T16:47:42.329Z,45.80
2018-07-04T16:50:21.997Z,45.70
2018-07-04T16:53:07.259Z,47.09
2018-07-04T16:55:52.688Z,45.88
2018-07-04T16:58:38.412Z,45.88
2018-07-04T17:01:18.146Z,46.97
2018-07-04T17:04:03.596Z,47.37
2018-07-04T17:06:49.079Z,46.90
2018-07-04T17:09:34.475Z,46.05
2018-07-04T17:12:19.899Z,45.92
2018-07-04T17:15:05.714Z,45.96
2018-07-04T17:17:50.905Z,46.42
2018-07-04T17:20:36.361Z,45.55
2018-07-04T17:23:21.770Z,45.28
2018-07-04T17:26:07.367Z,46.01
2018-07-04T17:28:46.733Z,45.32
2018-07-04T17:31:32.492Z,45.21
2018-07-04T17:34:12.266Z,45.67
2018-07-04T17:36:57.709Z,46.30
2018-07-04T17:39:43.259Z,46.18
2018-07-04T17:42:22.784Z,46.34
2018-07-04T17:45:08.084Z,47.09
2018-07-04T17:47:53.658Z,46.39
2018-07-04T17:50:39.130Z,46.11
2018-07-04T17:53:24.587Z,46.94
2018-07-04T17:56:09.994Z,47.88
2018-07-04T17:58:55.619Z,47.48
2018-07-04T18:01:41.102Z,48.85
2018-07-04T18:04:26.465Z,49.01
2018-07-04T18:07:11.924Z,48.61
2018-07-04T18:09:57.286Z,49.20
2018-07-04T18:12:42.689Z,50.08
2018-07-04T18:15:28.269Z,49.81
2018-07-04T18:18:13.657Z,50.85
2018-07-04T18:21:03.561Z,50.10
2018-07-04T18:23:43.404Z,51.54
2018-07-04T18:26:23.215Z,50.24
2018-07-04T18:29:09.000Z,49.76
2018-07-04T18:31:54.562Z,50.10
2018-07-04T18:34:40.056Z,50.28
2018-07-04T18:37:26.080Z,50.31
2018-07-04T18:40:11.367Z,51.59
2018-07-04T18:42:56.706Z,50.64
2018-07-04T18:45:42.090Z,51.67
2018-07-04T18:48:27.987Z,51.37
2018-07-04T18:51:13.453Z,50.98
2018-07-04T18:53:59.113Z,51.16
2018-07-04T18:56:44.567Z,52.38
2018-07-04T18:59:29.951Z,51.86
2018-07-04T19:02:09.689Z,52.60
2018-07-04T19:04:54.897Z,51.46
2018-07-04T19:07:40.418Z,52.11
2018-07-04T19:10:26.021Z,52.29
2018-07-04T19:13:11.396Z,51.52
2018-07-04T19:15:56.964Z,51.74
2018-07-04T19:18:42.486Z,51.52
2018-07-04T19:21:27.996Z,51.43
2018-07-04T19:24:13.313Z,51.42
2018-07-04T19:26:58.848Z,52.47
2018-07-04T19:29:44.360Z,51.94
2018-07-04T19:32:29.944Z,53.10
2018-07-04T19:35:15.487Z,52.45
2018-07-04T19:38:00.936Z,53.09
2018-07-04T19:40:40.505Z,53.15
2018-07-04T19:43:20.258Z,54.16
2018-07-04T19:46:05.684Z,54.67
2018-07-04T19:48:51.175Z,54.17
2018-07-04T19:51:36.405Z,54.38
2018-07-04T19:54:21.994Z,54.55
2018-07-04T19:57:07.333Z,55.72
2018-07-04T19:59:46.981Z,55.91
2018-07-04T20:02:26.791Z,56.43
2018-07-04T20:05:12.263Z,56.14
2018-07-04T20:07:57.601Z,56.99
2018-07-04T20:10:43.072Z,56.29
2018-07-04T20:13:28.693Z,56.91
2018-07-04T20:16:14.089Z,57.83
2018-07-04T20:18:59.671Z,58.25
2018-07-04T20:21:45.283Z,57.59
2018-07-04T20:24:30.779Z,58.16
2018-07-04T20:27:16.232Z,58.94
2018-07-04T20:30:01.804Z,58.38
2018-07-04T20:32:47.170Z,59.22
2018-07-04T20:35:32.615Z,58.51
2018-07-04T20:38:17.977Z,58.83
2018-07-04T20:41:03.461Z,59.45
2018-07-04T20:43:49.110Z,58.86
2018-07-04T20:46:34.657Z,58.75
2018-07-04T20:49:20.295Z,59.00
2018-07-04T20:52:05.960Z,58.77
2018-07-04T20:54:51.440Z,58.74
2018-07-04T20:57:36.997Z,58.97
2018-07-04T21:00:23.147Z,59.28
2018-07-04T21:03:08.734Z,58.75
2018-07-04T21:05:48.157Z,59.03
2018-07-04T21:08:27.667Z,59.72
2018-07-04T21:11:15.631Z,58.85
2018-07-04T21:14:01.401Z,59.11
2018-07-04T21:16:46.852Z,60.01
2018-07-04T21:19:32.348Z,60.23
2018-07-04T21:22:17.756Z,60.68
2018-07-04T21:24:57.313Z,60.47
2018-07-04T21:27:42.696Z,60.12
2018-07-04T21:30:28.202Z,60.13
2018-07-04T21:33:13.607Z,60.33
2018-07-04T21:35:59.340Z,61.32
2018-07-04T21:38:44.799Z,60.59
2018-07-04T21:41:30.425Z,60.45
2018-07-04T21:44:15.962Z,60.74
2018-07-04T21:47:01.572Z,61.16
2018-07-04T21:49:41.132Z,61.87
2018-07-04T21:52:26.594Z,61.14
2018-07-04T21:55:11.852Z,60.99
2018-07-04T21:58:06.432Z,61.36
2018-07-04T22:00:52.468Z,59.49
2018-07-04T22:03:38.125Z,58.05
2018-07-04T22:06:23.700Z,54.70
2018-07-04T22:09:09.352Z,54.75
2018-07-04T22:11:55.051Z,53.40
2018-07-04T22:14:41.293Z,51.49
2018-07-04T22:17:26.998Z,52.25
2018-07-04T22:20:12.696Z,52.16
2018-07-04T22:22:58.152Z,51.24
2018-07-04T22:25:43.517Z,52.40
2018-07-04T22:28:29.079Z,51.80
2018-07-04T22:31:14.735Z,51.58
2018-07-04T22:34:00.300Z,51.88
2018-07-04T22:36:45.876Z,52.76
2018-07-04T22:39:31.193Z,53.27
2018-07-04T22:42:16.982Z,52.97
2018-07-04T22:45:02.597Z,53.86
2018-07-04T22:47:42.079Z,53.42
2018-07-04T22:50:27.432Z,51.95
2018-07-04T22:53:13.334Z,51.98
2018-07-04T22:55:58.912Z,51.91
2018-07-04T22:58:44.625Z,52.45
2018-07-04T23:01:30.181Z,52.63
2018-07-04T23:04:15.760Z,53.33
2018-07-04T23:07:01.403Z,52.92
2018-07-04T23:09:47.111Z,52.08
2018-07-04T23:12:32.532Z,52.40
2018-07-04T23:15:17.888Z,52.32
2018-07-04T23:18:03.876Z,51.53
2018-07-04T23:20:49.374Z,51.34
2018-07-04T23:23:35.065Z,51.52
2018-07-04T23:26:20.615Z,50.59
2018-07-04T23:29:06.134Z,49.29
2018-07-04T23:31:51.496Z,48.13
2018-07-04T23:34:36.891Z,48.19
2018-07-04T23:37:22.181Z,48.44
2018-07-04T23:40:07.620Z,48.07
2018-07-04T23:42:53.062Z,47.09
2018-07-04T23:45:32.737Z,47.41
2018-07-04T23:48:18.457Z,47.75
2018-07-04T23:51:04.139Z,47.87
2018-07-04T23:53:49.634Z,47.30
2018-07-04T23:56:35.329Z,47.92
2018-07-04T23:59:20.880Z,46.93
